createdAt,value
2024-01-16T00:00:00.499Z,1.7
2024-01-16T00:05:00.471Z,1.6
2024-01-16T00:10:00.473Z,2.4
2024-01-16T00:15:00.478Z,2.2
2024-01-16T00:20:00.461Z,2.4
2024-01-16T00:25:00.613Z,2.0
2024-01-16T00:30:00.449Z,1.7
2024-01-16T00:35:00.462Z,2.2
2024-01-16T00:40:00.495Z,3.2
2024-01-16T00:45:00.467Z,2.3
2024-01-16T00:50:00.493Z,3.0
2024-01-16T00:55:00.472Z,2.3
2024-01-16T01:00:00.457Z,1.9
2024-01-16T01:05:00.583Z,1.8
2024-01-16T01:10:00.474Z,1.7
2024-01-16T01:15:00.568Z,1.8
2024-01-16T01:20:00.445Z,1.8
2024-01-16T01:25:00.457Z,2.0
2024-01-16T01:30:00.506Z,2.7
2024-01-16T01:35:00.446Z,1.8
2024-01-16T01:40:00.463Z,1.5
2024-01-16T01:45:00.590Z,2.3
2024-01-16T01:50:00.446Z,2.0
2024-01-16T01:55:00.444Z,1.6
2024-01-16T02:00:00.487Z,2.2
2024-01-16T02:05:00.468Z,1.5
2024-01-16T02:10:00.445Z,2.5
2024-01-16T02:15:00.434Z,2.9
2024-01-16T02:20:00.447Z,2.2
2024-01-16T02:25:00.436Z,2.5
2024-01-16T02:30:00.492Z,2.5
2024-01-16T02:35:00.434Z,3.5
2024-01-16T02:40:00.451Z,2.8
2024-01-16T02:45:00.461Z,3.2
2024-01-16T02:50:00.456Z,3.6
2024-01-16T02:55:00.464Z,3.5
2024-01-16T03:00:00.487Z,4.2
2024-01-16T03:05:00.474Z,3.5
2024-01-16T03:10:00.449Z,3.7
2024-01-16T03:15:00.448Z,3.7
2024-01-16T03:20:00.455Z,3.6
2024-01-16T03:25:00.444Z,3.8
2024-01-16T03:30:00.597Z,3.1
2024-01-16T03:35:00.460Z,3.5
2024-01-16T03:40:00.474Z,3.2
2024-01-16T03:45:00.511Z,2.8
2024-01-16T03:50:00.455Z,3.6
2024-01-16T03:55:00.450Z,3.0
2024-01-16T04:00:00.492Z,3.9
2024-01-16T04:05:00.493Z,3.4
2024-01-16T04:10:00.480Z,3.9
2024-01-16T04:15:00.482Z,3.6
2024-01-16T04:20:00.450Z,3.2
2024-01-16T04:25:00.445Z,3.6
2024-01-16T04:30:00.470Z,3.6
2024-01-16T04:35:00.492Z,3.1
2024-01-16T04:40:00.453Z,2.9
2024-01-16T04:45:00.446Z,2.8
2024-01-16T04:50:00.525Z,2.0
2024-01-16T04:55:00.453Z,2.3
2024-01-16T05:00:00.531Z,2.6
2024-01-16T05:05:00.533Z,2.3
2024-01-16T05:10:00.471Z,2.4
2024-01-16T05:15:00.453Z,1.9
2024-01-16T05:20:00.450Z,2.2
2024-01-16T05:25:00.468Z,1.6
2024-01-16T05:30:00.568Z,2.0
2024-01-16T05:35:00.448Z,1.4
2024-01-16T05:40:00.454Z,1.1
2024-01-16T05:45:00.487Z,1.0
2024-01-16T05:50:00.730Z,0.8
2024-01-16T05:55:00.443Z,0.6
2024-01-16T06:00:00.461Z,0.8
2024-01-16T06:05:00.463Z,0.6
2024-01-16T06:10:00.450Z,0.6
2024-01-16T06:15:00.518Z,0.6
2024-01-16T06:20:00.519Z,0.7
2024-01-16T06:25:00.440Z,0.8
2024-01-16T06:30:00.612Z,0.8
2024-01-16T06:35:00.441Z,1.0
2024-01-16T06:40:00.458Z,1.1
2024-01-16T06:45:00.541Z,0.7
2024-01-16T06:50:00.470Z,0.9
2024-01-16T06:55:00.454Z,0.8
2024-01-16T07:00:00.808Z,1.0
2024-01-16T07:05:00.991Z,1.3
2024-01-16T07:10:00.450Z,0.8
2024-01-16T07:15:00.474Z,0.8
2024-01-16T07:20:00.430Z,0.8
2024-01-16T07:25:00.434Z,1.2
2024-01-16T07:30:00.463Z,1.3
2024-01-16T07:35:00.422Z,0.8
2024-01-16T07:40:00.470Z,0.9
2024-01-16T07:45:00.421Z,0.6
2024-01-16T07:50:00.426Z,0.7
2024-01-16T07:55:00.444Z,0.8
2024-01-16T08:00:00.546Z,1.6
2024-01-16T08:05:00.419Z,0.8
2024-01-16T08:10:00.424Z,1.2
2024-01-16T08:15:00.537Z,1.1
2024-01-16T08:20:00.452Z,0.8
2024-01-16T08:25:00.449Z,1.2
2024-01-16T08:30:00.521Z,1.1
2024-01-16T08:35:00.554Z,1.3
2024-01-16T08:40:00.478Z,1.3
2024-01-16T08:45:00.619Z,1.2
2024-01-16T08:50:00.467Z,1.5
2024-01-16T08:55:00.472Z,1.4
2024-01-16T09:00:00.532Z,1.6
2024-01-16T09:05:00.623Z,2.0
2024-01-16T09:10:00.463Z,1.8
2024-01-16T09:15:00.496Z,1.5
2024-01-16T09:20:00.468Z,1.9
2024-01-16T09:25:00.466Z,1.7
2024-01-16T09:30:00.527Z,1.4
2024-01-16T09:35:00.477Z,1.6
2024-01-16T09:40:00.451Z,1.7
2024-01-16T09:50:00.451Z,1.0
2024-01-16T09:55:00.441Z,1.6
2024-01-16T10:00:00.590Z,1.3
2024-01-16T10:05:00.438Z,0.8
2024-01-16T10:10:00.447Z,0.9
2024-01-16T10:15:00.528Z,0.7
2024-01-16T10:20:00.568Z,0.9
2024-01-16T10:25:00.448Z,0.6
2024-01-16T10:30:00.769Z,0.6
2024-01-16T10:35:00.566Z,0.5
2024-01-16T10:40:00.462Z,0.7
2024-01-16T10:45:00.457Z,0.6
2024-01-16T10:50:00.518Z,0.7
2024-01-16T10:55:00.457Z,0.6
2024-01-16T11:00:00.549Z,1.0
2024-01-16T11:05:00.465Z,0.8
2024-01-16T11:10:00.464Z,0.6
2024-01-16T11:15:00.506Z,0.8
2024-01-16T11:20:13.669Z,0.6
2024-01-16T11:25:00.458Z,1.0
2024-01-16T11:30:00.713Z,0.8
2024-01-16T11:35:00.555Z,0.8
2024-01-16T11:40:00.568Z,0.7
2024-01-16T11:45:00.621Z,0.9
2024-01-16T11:50:00.440Z,0.7
2024-01-16T11:55:00.443Z,0.7
2024-01-16T12:00:00.624Z,1.0
2024-01-16T12:05:00.451Z,0.9
2024-01-16T12:10:00.452Z,0.8
2024-01-16T12:15:00.542Z,0.7
2024-01-16T12:20:00.670Z,1.0
2024-01-16T12:25:00.451Z,0.9
2024-01-16T12:30:00.453Z,1.3
2024-01-16T12:35:00.656Z,1.0
2024-01-16T12:40:00.489Z,1.0
2024-01-16T12:45:00.764Z,1.1
2024-01-16T12:50:00.586Z,1.2
2024-01-16T12:55:00.450Z,1.0
2024-01-16T13:00:00.635Z,1.1
2024-01-16T13:05:01.199Z,0.6
2024-01-16T13:10:00.461Z,1.0
2024-01-16T13:15:00.520Z,1.0
2024-01-16T13:20:00.460Z,1.6
2024-01-16T13:25:08.590Z,1.1
2024-01-16T13:30:00.600Z,0.9
2024-01-16T13:35:00.440Z,0.9
2024-01-16T13:40:00.458Z,1.3
2024-01-16T13:45:00.638Z,1.3
2024-01-16T13:50:00.564Z,1.4
2024-01-16T13:55:00.437Z,1.3
2024-01-16T14:00:00.728Z,1.1
2024-01-16T14:05:00.550Z,1.7
2024-01-16T14:10:00.457Z,2.7
2024-01-16T14:15:00.509Z,2.4
2024-01-16T14:20:00.470Z,2.0
2024-01-16T14:25:00.451Z,2.2
2024-01-16T14:30:00.628Z,2.6
2024-01-16T14:35:00.444Z,2.4
2024-01-16T14:40:00.440Z,1.8
2024-01-16T14:45:00.509Z,1.7
2024-01-16T14:50:00.455Z,2.1
2024-01-16T14:55:00.445Z,1.5
2024-01-16T15:00:00.695Z,1.9
2024-01-16T15:05:00.458Z,1.8
2024-01-16T15:10:00.440Z,1.9
2024-01-16T15:15:00.659Z,1.7
2024-01-16T15:20:00.514Z,1.6
2024-01-16T15:25:00.475Z,1.5
2024-01-16T15:30:00.560Z,2.0
2024-01-16T15:35:00.514Z,1.6
2024-01-16T15:40:00.468Z,1.9
2024-01-16T15:45:00.525Z,2.0
2024-01-16T15:50:00.471Z,2.3
2024-01-16T15:55:00.464Z,1.9
2024-01-16T16:00:00.787Z,2.6
2024-01-16T16:05:00.440Z,2.8
2024-01-16T16:10:00.440Z,2.7
2024-01-16T16:15:00.546Z,3.2
2024-01-16T16:20:00.480Z,4.8
2024-01-16T16:25:00.439Z,4.0
2024-01-16T16:30:00.790Z,4.7
2024-01-16T16:35:00.445Z,4.3
2024-01-16T16:40:00.465Z,4.6
2024-01-16T16:45:00.630Z,5.6
2024-01-16T16:50:00.469Z,5.2
2024-01-16T16:55:00.465Z,5.1
2024-01-16T17:00:00.911Z,6.0
2024-01-16T17:05:00.608Z,5.2
2024-01-16T17:10:00.467Z,4.4
2024-01-16T17:15:00.532Z,5.5
2024-01-16T17:20:00.453Z,4.9
2024-01-16T17:25:00.449Z,4.5
2024-01-16T17:30:00.776Z,4.3
2024-01-16T17:35:00.448Z,4.2
2024-01-16T17:40:00.666Z,4.4
2024-01-16T17:45:00.658Z,5.5
2024-01-16T17:50:00.477Z,4.6
2024-01-16T17:55:00.461Z,4.3
2024-01-16T18:00:00.651Z,5.0
2024-01-16T18:05:00.469Z,5.0
2024-01-16T18:10:00.505Z,5.3
2024-01-16T18:15:00.537Z,4.6
2024-01-16T18:20:00.451Z,4.8
2024-01-16T18:25:00.454Z,5.5
2024-01-16T18:30:00.726Z,4.9
2024-01-16T18:35:00.443Z,5.2
2024-01-16T18:40:00.445Z,5.4
2024-01-16T18:45:00.575Z,5.3
2024-01-16T18:50:00.460Z,4.7
2024-01-16T18:55:00.449Z,5.6
2024-01-16T19:00:00.620Z,5.1
2024-01-16T19:05:00.551Z,4.3
2024-01-16T19:10:00.474Z,5.6
2024-01-16T19:15:00.485Z,5.5
2024-01-16T19:20:00.471Z,5.2
2024-01-16T19:25:00.440Z,4.5
2024-01-16T19:30:00.686Z,4.6
2024-01-16T19:35:00.455Z,4.6
2024-01-16T19:40:00.461Z,5.4
2024-01-16T19:45:00.524Z,4.6
2024-01-16T19:50:00.484Z,3.7
2024-01-16T19:55:00.457Z,4.6
2024-01-16T20:00:00.661Z,4.0
2024-01-16T20:05:00.475Z,4.8
2024-01-16T20:10:00.453Z,4.2
2024-01-16T20:15:03.748Z,4.5
2024-01-16T20:20:00.475Z,4.5
2024-01-16T20:25:00.442Z,4.3
2024-01-16T20:30:00.775Z,4.2
2024-01-16T20:35:00.552Z,3.6
2024-01-16T20:40:00.455Z,3.8
2024-01-16T20:45:00.715Z,3.9
2024-01-16T20:50:00.467Z,4.3
2024-01-16T20:55:03.529Z,3.5
2024-01-16T21:00:00.568Z,3.5
2024-01-16T21:05:00.788Z,3.2
2024-01-16T21:10:00.455Z,4.3
2024-01-16T21:15:00.700Z,4.1
2024-01-16T21:20:00.461Z,3.9
2024-01-16T21:25:00.453Z,3.5
2024-01-16T21:30:00.649Z,3.5
2024-01-16T21:35:00.462Z,3.4
2024-01-16T21:40:00.444Z,4.4
2024-01-16T21:45:00.670Z,5.1
2024-01-16T21:50:06.413Z,4.4
2024-01-16T21:55:02.522Z,5.4
2024-01-16T22:00:00.672Z,6.5
2024-01-16T22:05:00.656Z,4.9
2024-01-16T22:10:00.443Z,6.4
2024-01-16T22:15:00.548Z,6.1
2024-01-16T22:20:00.552Z,6.3
2024-01-16T22:25:00.446Z,4.3
2024-01-16T22:30:00.660Z,4.7
2024-01-16T22:35:00.458Z,4.3
2024-01-16T22:40:00.520Z,5.1
2024-01-16T22:45:00.529Z,4.9
2024-01-16T22:50:00.470Z,4.7
2024-01-16T22:55:00.445Z,4.7
2024-01-16T23:00:00.829Z,5.1
2024-01-16T23:05:00.459Z,5.1
2024-01-16T23:10:00.448Z,5.4
2024-01-16T23:15:00.646Z,4.3
2024-01-16T23:20:00.485Z,4.2
2024-01-16T23:25:00.448Z,5.8
2024-01-16T23:30:00.625Z,6.0
2024-01-16T23:35:00.458Z,5.9
2024-01-16T23:40:00.460Z,5.5
2024-01-16T23:45:00.620Z,5.9
2024-01-16T23:50:00.694Z,5.6
2024-01-16T23:55:00.448Z,5.3
